createdAt,value
2022-10-11T00:09:57.322Z,1023.33
2022-10-11T00:38:19.771Z,1023.33
2022-10-11T01:06:33.985Z,1023.39
2022-10-11T01:35:24.142Z,1023.42
2022-10-11T02:04:12.315Z,1023.44
2022-10-11T02:33:08.948Z,1023.34
2022-10-11T03:01:45.937Z,1023.44
2022-10-11T03:30:34.781Z,1023.55
2022-10-11T03:59:21.683Z,1023.62
2022-10-11T04:27:39.639Z,1023.69
2022-10-11T04:55:59.343Z,1023.87
2022-10-11T05:24:15.660Z,1024.09
2022-10-11T05:52:26.839Z,1024.22
2022-10-11T06:20:46.641Z,1024.6
2022-10-11T06:49:42.014Z,1024.91
2022-10-11T07:18:02.006Z,1025.27
2022-10-11T07:46:22.753Z,1025.39
2022-10-11T08:15:29.500Z,1025.43
2022-10-11T09:12:50.285Z,1025.8
2022-10-11T09:41:14.472Z,1025.73
2022-10-11T10:10:08.176Z,1025.76
2022-10-11T10:39:25.167Z,1025.7
2022-10-11T11:08:30.213Z,1025.73
2022-10-11T11:37:24.602Z,1025.44
2022-10-11T12:06:43.697Z,1025.31
2022-10-11T12:34:57.164Z,1025.15
2022-10-11T13:04:00.556Z,1024.98
2022-10-11T13:32:55.828Z,1024.95
2022-10-11T14:01:51.767Z,1024.82
2022-10-11T14:30:27.719Z,1024.79
2022-10-11T14:58:28.555Z,1024.79
2022-10-11T15:26:46.253Z,1024.67
2022-10-11T15:55:35.734Z,1024.58
2022-10-11T16:24:22.283Z,1024.47
2022-10-11T16:53:16.377Z,1024.55
2022-10-11T17:22:07.263Z,1024.59
2022-10-11T17:50:56.717Z,1024.7
2022-10-11T18:19:54.944Z,1024.75
2022-10-11T18:48:41.161Z,1024.8
2022-10-11T19:17:43.051Z,1024.8
2022-10-11T19:45:57.463Z,1024.76
2022-10-11T20:14:16.955Z,1024.94
2022-10-11T20:42:33.497Z,1024.9
2022-10-11T21:10:48.870Z,1025.06
2022-10-11T21:39:09.529Z,1024.93
2022-10-11T22:08:05.516Z,1024.89
2022-10-11T22:37:00.771Z,1024.8
2022-10-11T23:05:56.729Z,1024.83
2022-10-11T23:34:45.849Z,1024.82
